sensor_id;sensor_type;location;lat;lon;timestamp;P1;durP1;ratioP1;P2;durP2;ratioP2
30571;SDS011;17348;50.948;10.696;2022-08-19T00:02:35;24.35;;;13.63;;
30571;SDS011;17348;50.948;10.696;2022-08-19T00:05:39;25.70;;;13.88;;
30571;SDS011;17348;50.948;10.696;2022-08-19T00:08:42;28.92;;;14.18;;
30571;SDS011;17348;50.948;10.696;2022-08-19T00:11:45;32.60;;;16.52;;
30571;SDS011;17348;50.948;10.696;2022-08-19T00:14:48;32.17;;;18.27;;
30571;SDS011;17348;50.948;10.696;2022-08-19T00:17:50;29.02;;;13.80;;
30571;SDS011;17348;50.948;10.696;2022-08-19T00:20:54;31.85;;;15.65;;
30571;SDS011;17348;50.948;10.696;2022-08-19T00:23:56;28.65;;;15.70;;
30571;SDS011;17348;50.948;10.696;2022-08-19T00:26:59;29.95;;;15.23;;
30571;SDS011;17348;50.948;10.696;2022-08-19T00:30:02;28.70;;;15.57;;
30571;SDS011;17348;50.948;10.696;2022-08-19T00:33:06;39.55;;;17.05;;
30571;SDS011;17348;50.948;10.696;2022-08-19T00:36:10;30.40;;;16.20;;
30571;SDS011;17348;50.948;10.696;2022-08-19T00:39:13;24.52;;;14.10;;
30571;SDS011;17348;50.948;10.696;2022-08-19T00:42:17;29.77;;;15.57;;
30571;SDS011;17348;50.948;10.696;2022-08-19T00:45:22;23.20;;;13.90;;
30571;SDS011;17348;50.948;10.696;2022-08-19T00:48:27;26.92;;;12.88;;
30571;SDS011;17348;50.948;10.696;2022-08-19T00:51:31;20.08;;;12.50;;
30571;SDS011;17348;50.948;10.696;2022-08-19T00:54:35;27.23;;;12.68;;
30571;SDS011;17348;50.948;10.696;2022-08-19T00:57:40;21.20;;;12.27;;
30571;SDS011;17348;50.948;10.696;2022-08-19T01:00:46;26.08;;;12.82;;
30571;SDS011;17348;50.948;10.696;2022-08-19T01:03:49;22.05;;;12.70;;
30571;SDS011;17348;50.948;10.696;2022-08-19T01:06:53;18.52;;;11.77;;
30571;SDS011;17348;50.948;10.696;2022-08-19T01:09:56;20.85;;;12.50;;
30571;SDS011;17348;50.948;10.696;2022-08-19T01:12:59;19.35;;;12.90;;
30571;SDS011;17348;50.948;10.696;2022-08-19T01:16:05;26.67;;;12.27;;
30571;SDS011;17348;50.948;10.696;2022-08-19T01:19:10;22.42;;;11.02;;
30571;SDS011;17348;50.948;10.696;2022-08-19T01:22:25;18.70;;;11.75;;
30571;SDS011;17348;50.948;10.696;2022-08-19T01:25:32;18.15;;;11.13;;
30571;SDS011;17348;50.948;10.696;2022-08-19T01:28:41;18.83;;;11.55;;
30571;SDS011;17348;50.948;10.696;2022-08-19T01:31:44;21.00;;;12.02;;
30571;SDS011;17348;50.948;10.696;2022-08-19T01:34:47;21.52;;;10.57;;
30571;SDS011;17348;50.948;10.696;2022-08-19T01:37:51;21.65;;;10.68;;
30571;SDS011;17348;50.948;10.696;2022-08-19T01:40:55;18.70;;;11.18;;
30571;SDS011;17348;50.948;10.696;2022-08-19T01:43:59;23.95;;;11.13;;
30571;SDS011;17348;50.948;10.696;2022-08-19T01:47:03;20.15;;;11.27;;
30571;SDS011;17348;50.948;10.696;2022-08-19T01:50:07;19.98;;;11.60;;
30571;SDS011;17348;50.948;10.696;2022-08-19T01:53:11;25.55;;;13.73;;
30571;SDS011;17348;50.948;10.696;2022-08-19T01:56:14;21.00;;;12.15;;
30571;SDS011;17348;50.948;10.696;2022-08-19T01:59:17;17.85;;;11.68;;
30571;SDS011;17348;50.948;10.696;2022-08-19T02:02:21;18.15;;;11.23;;
30571;SDS011;17348;50.948;10.696;2022-08-19T02:05:24;21.63;;;12.27;;
30571;SDS011;17348;50.948;10.696;2022-08-19T02:08:28;19.25;;;11.82;;
30571;SDS011;17348;50.948;10.696;2022-08-19T02:11:31;18.20;;;11.55;;
30571;SDS011;17348;50.948;10.696;2022-08-19T02:14:36;18.90;;;12.52;;
30571;SDS011;17348;50.948;10.696;2022-08-19T02:17:38;24.30;;;12.88;;
30571;SDS011;17348;50.948;10.696;2022-08-19T02:20:41;25.38;;;14.70;;
30571;SDS011;17348;50.948;10.696;2022-08-19T02:23:46;28.38;;;14.70;;
30571;SDS011;17348;50.948;10.696;2022-08-19T02:26:48;25.92;;;14.90;;
30571;SDS011;17348;50.948;10.696;2022-08-19T02:29:51;25.40;;;14.82;;
30571;SDS011;17348;50.948;10.696;2022-08-19T02:32:54;24.33;;;14.52;;
30571;SDS011;17348;50.948;10.696;2022-08-19T02:35:56;28.48;;;14.70;;
30571;SDS011;17348;50.948;10.696;2022-08-19T02:38:59;28.00;;;15.98;;
30571;SDS011;17348;50.948;10.696;2022-08-19T02:42:02;25.60;;;15.98;;
30571;SDS011;17348;50.948;10.696;2022-08-19T02:45:05;33.08;;;17.08;;
30571;SDS011;17348;50.948;10.696;2022-08-19T02:48:08;30.02;;;15.70;;
30571;SDS011;17348;50.948;10.696;2022-08-19T02:51:15;27.70;;;15.60;;
30571;SDS011;17348;50.948;10.696;2022-08-19T02:54:19;31.02;;;17.38;;
30571;SDS011;17348;50.948;10.696;2022-08-19T02:57:22;27.10;;;15.07;;
30571;SDS011;17348;50.948;10.696;2022-08-19T03:00:24;37.80;;;16.90;;
30571;SDS011;17348;50.948;10.696;2022-08-19T03:03:27;29.75;;;15.48;;
30571;SDS011;17348;50.948;10.696;2022-08-19T03:06:30;28.67;;;17.60;;
30571;SDS011;17348;50.948;10.696;2022-08-19T03:09:37;27.23;;;16.55;;
30571;SDS011;17348;50.948;10.696;2022-08-19T03:12:39;28.85;;;16.83;;
30571;SDS011;17348;50.948;10.696;2022-08-19T03:15:42;31.45;;;17.88;;
30571;SDS011;17348;50.948;10.696;2022-08-19T03:18:46;31.15;;;17.05;;
30571;SDS011;17348;50.948;10.696;2022-08-19T03:21:49;37.17;;;19.20;;
30571;SDS011;17348;50.948;10.696;2022-08-19T03:24:53;27.60;;;17.20;;
30571;SDS011;17348;50.948;10.696;2022-08-19T03:27:56;31.77;;;18.02;;
30571;SDS011;17348;50.948;10.696;2022-08-19T03:30:59;30.50;;;17.90;;
30571;SDS011;17348;50.948;10.696;2022-08-19T03:34:02;33.53;;;17.92;;
30571;SDS011;17348;50.948;10.696;2022-08-19T03:37:05;36.78;;;18.05;;
30571;SDS011;17348;50.948;10.696;2022-08-19T03:40:14;31.50;;;18.02;;
30571;SDS011;17348;50.948;10.696;2022-08-19T03:43:16;31.92;;;16.92;;
30571;SDS011;17348;50.948;10.696;2022-08-19T03:46:20;35.17;;;18.27;;
30571;SDS011;17348;50.948;10.696;2022-08-19T03:49:24;27.83;;;16.50;;
30571;SDS011;17348;50.948;10.696;2022-08-19T03:52:28;26.05;;;16.48;;
30571;SDS011;17348;50.948;10.696;2022-08-19T03:55:33;33.67;;;18.23;;
30571;SDS011;17348;50.948;10.696;2022-08-19T03:58:35;30.67;;;17.08;;
30571;SDS011;17348;50.948;10.696;2022-08-19T04:01:40;35.35;;;16.77;;
30571;SDS011;17348;50.948;10.696;2022-08-19T04:04:43;31.80;;;17.00;;
30571;SDS011;17348;50.948;10.696;2022-08-19T04:07:45;32.67;;;16.45;;
30571;SDS011;17348;50.948;10.696;2022-08-19T04:10:49;31.77;;;16.98;;
30571;SDS011;17348;50.948;10.696;2022-08-19T04:13:52;35.03;;;18.13;;
30571;SDS011;17348;50.948;10.696;2022-08-19T04:16:55;32.28;;;18.30;;
30571;SDS011;17348;50.948;10.696;2022-08-19T04:19:58;32.63;;;18.42;;
30571;SDS011;17348;50.948;10.696;2022-08-19T04:23:01;33.88;;;17.33;;
30571;SDS011;17348;50.948;10.696;2022-08-19T04:26:05;30.67;;;16.95;;
30571;SDS011;17348;50.948;10.696;2022-08-19T04:29:08;30.98;;;17.40;;
30571;SDS011;17348;50.948;10.696;2022-08-19T04:32:13;39.28;;;18.83;;
30571;SDS011;17348;50.948;10.696;2022-08-19T04:35:15;34.92;;;18.17;;
30571;SDS011;17348;50.948;10.696;2022-08-19T04:38:19;38.42;;;18.13;;
30571;SDS011;17348;50.948;10.696;2022-08-19T04:41:24;31.80;;;18.80;;
30571;SDS011;17348;50.948;10.696;2022-08-19T04:44:44;31.73;;;17.83;;
30571;SDS011;17348;50.948;10.696;2022-08-19T04:47:47;33.83;;;17.58;;
30571;SDS011;17348;50.948;10.696;2022-08-19T04:50:49;36.38;;;18.55;;
30571;SDS011;17348;50.948;10.696;2022-08-19T04:53:51;32.83;;;18.33;;
30571;SDS011;17348;50.948;10.696;2022-08-19T04:56:55;33.05;;;18.58;;
30571;SDS011;17348;50.948;10.696;2022-08-19T04:59:58;34.67;;;18.73;;
30571;SDS011;17348;50.948;10.696;2022-08-19T05:03:01;32.15;;;18.08;;
30571;SDS011;17348;50.948;10.696;2022-08-19T05:06:04;38.65;;;18.25;;
30571;SDS011;17348;50.948;10.696;2022-08-19T05:09:07;32.58;;;17.10;;
30571;SDS011;17348;50.948;10.696;2022-08-19T05:12:11;27.65;;;16.67;;
30571;SDS011;17348;50.948;10.696;2022-08-19T05:15:14;28.55;;;17.23;;
30571;SDS011;17348;50.948;10.696;2022-08-19T05:18:16;32.53;;;16.08;;
30571;SDS011;17348;50.948;10.696;2022-08-19T05:21:36;28.48;;;16.75;;
30571;SDS011;17348;50.948;10.696;2022-08-19T05:24:56;31.60;;;15.73;;
30571;SDS011;17348;50.948;10.696;2022-08-19T05:28:03;29.98;;;14.93;;
30571;SDS011;17348;50.948;10.696;2022-08-19T05:31:06;23.10;;;14.23;;
30571;SDS011;17348;50.948;10.696;2022-08-19T05:34:08;24.92;;;12.13;;
30571;SDS011;17348;50.948;10.696;2022-08-19T05:37:11;18.38;;;10.18;;
30571;SDS011;17348;50.948;10.696;2022-08-19T05:40:14;18.30;;;10.18;;
30571;SDS011;17348;50.948;10.696;2022-08-19T05:43:17;18.50;;;9.85;;
30571;SDS011;17348;50.948;10.696;2022-08-19T05:46:20;16.35;;;8.55;;
30571;SDS011;17348;50.948;10.696;2022-08-19T05:49:23;11.98;;;7.93;;
30571;SDS011;17348;50.948;10.696;2022-08-19T05:52:27;14.18;;;7.80;;
30571;SDS011;17348;50.948;10.696;2022-08-19T05:55:29;12.20;;;7.47;;
30571;SDS011;17348;50.948;10.696;2022-08-19T05:58:33;12.88;;;7.70;;
30571;SDS011;17348;50.948;10.696;2022-08-19T06:01:35;14.05;;;7.32;;
30571;SDS011;17348;50.948;10.696;2022-08-19T06:04:38;11.13;;;7.50;;
30571;SDS011;17348;50.948;10.696;2022-08-19T06:07:43;15.23;;;10.02;;
30571;SDS011;17348;50.948;10.696;2022-08-19T06:10:46;18.15;;;9.90;;
30571;SDS011;17348;50.948;10.696;2022-08-19T06:13:51;17.33;;;8.30;;
30571;SDS011;17348;50.948;10.696;2022-08-19T06:16:55;20.25;;;9.10;;
30571;SDS011;17348;50.948;10.696;2022-08-19T06:19:57;16.45;;;8.82;;
30571;SDS011;17348;50.948;10.696;2022-08-19T06:23:00;30.38;;;9.32;;
30571;SDS011;17348;50.948;10.696;2022-08-19T06:26:02;18.13;;;8.23;;
30571;SDS011;17348;50.948;10.696;2022-08-19T06:29:07;13.98;;;8.48;;
30571;SDS011;17348;50.948;10.696;2022-08-19T06:32:11;16.02;;;8.20;;
30571;SDS011;17348;50.948;10.696;2022-08-19T06:35:14;15.02;;;7.78;;
30571;SDS011;17348;50.948;10.696;2022-08-19T06:38:16;13.82;;;8.45;;
30571;SDS011;17348;50.948;10.696;2022-08-19T06:41:23;13.68;;;7.78;;
30571;SDS011;17348;50.948;10.696;2022-08-19T06:44:28;16.38;;;8.93;;
30571;SDS011;17348;50.948;10.696;2022-08-19T06:47:36;16.30;;;7.97;;
30571;SDS011;17348;50.948;10.696;2022-08-19T06:50:38;15.95;;;8.57;;
30571;SDS011;17348;50.948;10.696;2022-08-19T06:53:48;15.55;;;8.05;;
30571;SDS011;17348;50.948;10.696;2022-08-19T06:56:52;19.23;;;8.18;;
30571;SDS011;17348;50.948;10.696;2022-08-19T06:59:57;16.15;;;6.80;;
30571;SDS011;17348;50.948;10.696;2022-08-19T07:03:00;17.73;;;8.02;;
30571;SDS011;17348;50.948;10.696;2022-08-19T07:06:03;10.13;;;6.05;;
30571;SDS011;17348;50.948;10.696;2022-08-19T07:09:06;9.60;;;5.20;;
30571;SDS011;17348;50.948;10.696;2022-08-19T07:12:11;7.45;;;5.20;;
30571;SDS011;17348;50.948;10.696;2022-08-19T07:15:17;10.60;;;6.00;;
30571;SDS011;17348;50.948;10.696;2022-08-19T07:18:21;8.88;;;5.18;;
30571;SDS011;17348;50.948;10.696;2022-08-19T07:21:25;14.02;;;5.75;;
30571;SDS011;17348;50.948;10.696;2022-08-19T07:24:29;11.43;;;5.53;;
30571;SDS011;17348;50.948;10.696;2022-08-19T07:27:31;8.35;;;4.55;;
30571;SDS011;17348;50.948;10.696;2022-08-19T07:30:37;11.63;;;4.57;;
30571;SDS011;17348;50.948;10.696;2022-08-19T07:33:41;6.63;;;4.28;;
30571;SDS011;17348;50.948;10.696;2022-08-19T07:36:43;12.40;;;4.32;;
30571;SDS011;17348;50.948;10.696;2022-08-19T07:39:46;10.13;;;4.40;;
30571;SDS011;17348;50.948;10.696;2022-08-19T07:42:49;5.75;;;4.05;;
30571;SDS011;17348;50.948;10.696;2022-08-19T07:45:53;7.35;;;3.67;;
30571;SDS011;17348;50.948;10.696;2022-08-19T07:48:57;8.40;;;3.33;;
30571;SDS011;17348;50.948;10.696;2022-08-19T07:52:01;6.13;;;3.70;;
30571;SDS011;17348;50.948;10.696;2022-08-19T07:55:07;13.23;;;3.90;;
30571;SDS011;17348;50.948;10.696;2022-08-19T07:58:12;10.10;;;3.85;;
30571;SDS011;17348;50.948;10.696;2022-08-19T08:01:19;7.85;;;4.05;;
30571;SDS011;17348;50.948;10.696;2022-08-19T08:04:23;10.13;;;3.58;;
30571;SDS011;17348;50.948;10.696;2022-08-19T08:07:45;9.85;;;3.70;;
30571;SDS011;17348;50.948;10.696;2022-08-19T08:11:05;11.32;;;4.72;;
30571;SDS011;17348;50.948;10.696;2022-08-19T08:14:08;7.88;;;3.28;;
30571;SDS011;17348;50.948;10.696;2022-08-19T08:17:12;7.82;;;3.40;;
30571;SDS011;17348;50.948;10.696;2022-08-19T08:20:16;7.50;;;3.10;;
30571;SDS011;17348;50.948;10.696;2022-08-19T08:23:19;4.82;;;2.70;;
30571;SDS011;17348;50.948;10.696;2022-08-19T08:26:25;7.18;;;2.28;;
30571;SDS011;17348;50.948;10.696;2022-08-19T08:29:29;5.38;;;2.88;;
30571;SDS011;17348;50.948;10.696;2022-08-19T08:32:33;10.68;;;2.78;;
30571;SDS011;17348;50.948;10.696;2022-08-19T08:35:35;5.70;;;2.55;;
30571;SDS011;17348;50.948;10.696;2022-08-19T08:38:38;3.90;;;2.38;;
30571;SDS011;17348;50.948;10.696;2022-08-19T08:41:44;5.55;;;2.20;;
30571;SDS011;17348;50.948;10.696;2022-08-19T08:44:52;9.73;;;2.30;;
30571;SDS011;17348;50.948;10.696;2022-08-19T08:48:02;3.33;;;1.70;;
30571;SDS011;17348;50.948;10.696;2022-08-19T08:51:23;2.55;;;1.90;;
30571;SDS011;17348;50.948;10.696;2022-08-19T08:54:30;2.63;;;1.52;;
30571;SDS011;17348;50.948;10.696;2022-08-19T08:57:39;3.67;;;2.05;;
30571;SDS011;17348;50.948;10.696;2022-08-19T09:00:46;3.83;;;1.48;;
30571;SDS011;17348;50.948;10.696;2022-08-19T09:03:51;2.35;;;1.45;;
30571;SDS011;17348;50.948;10.696;2022-08-19T09:06:55;5.78;;;1.50;;
30571;SDS011;17348;50.948;10.696;2022-08-19T09:10:07;4.28;;;1.58;;
30571;SDS011;17348;50.948;10.696;2022-08-19T09:13:19;2.78;;;1.65;;
30571;SDS011;17348;50.948;10.696;2022-08-19T09:16:29;5.50;;;1.80;;
30571;SDS011;17348;50.948;10.696;2022-08-19T09:19:33;5.40;;;1.80;;
30571;SDS011;17348;50.948;10.696;2022-08-19T09:22:37;2.47;;;1.55;;
30571;SDS011;17348;50.948;10.696;2022-08-19T09:25:40;4.30;;;1.50;;
30571;SDS011;17348;50.948;10.696;2022-08-19T09:28:44;1.85;;;1.52;;
30571;SDS011;17348;50.948;10.696;2022-08-19T09:31:48;1.52;;;1.42;;
30571;SDS011;17348;50.948;10.696;2022-08-19T09:34:52;3.45;;;1.88;;
30571;SDS011;17348;50.948;10.696;2022-08-19T09:37:55;4.97;;;1.92;;
30571;SDS011;17348;50.948;10.696;2022-08-19T09:41:01;3.72;;;2.10;;
30571;SDS011;17348;50.948;10.696;2022-08-19T09:44:05;11.35;;;1.60;;
30571;SDS011;17348;50.948;10.696;2022-08-19T09:47:08;5.70;;;2.05;;
30571;SDS011;17348;50.948;10.696;2022-08-19T09:50:13;2.60;;;1.63;;
30571;SDS011;17348;50.948;10.696;2022-08-19T09:53:18;2.40;;;1.52;;
30571;SDS011;17348;50.948;10.696;2022-08-19T09:56:23;2.90;;;1.50;;
30571;SDS011;17348;50.948;10.696;2022-08-19T09:59:26;4.88;;;1.80;;
30571;SDS011;17348;50.948;10.696;2022-08-19T10:02:29;7.65;;;1.90;;
30571;SDS011;17348;50.948;10.696;2022-08-19T10:05:32;3.03;;;1.40;;
30571;SDS011;17348;50.948;10.696;2022-08-19T10:08:50;2.80;;;1.85;;
30571;SDS011;17348;50.948;10.696;2022-08-19T10:11:53;4.38;;;1.60;;
30571;SDS011;17348;50.948;10.696;2022-08-19T10:14:56;2.25;;;1.48;;
30571;SDS011;17348;50.948;10.696;2022-08-19T10:17:58;3.35;;;1.30;;
30571;SDS011;17348;50.948;10.696;2022-08-19T10:21:07;4.60;;;1.60;;
30571;SDS011;17348;50.948;10.696;2022-08-19T10:24:11;2.42;;;1.40;;
30571;SDS011;17348;50.948;10.696;2022-08-19T10:27:13;2.22;;;1.20;;
30571;SDS011;17348;50.948;10.696;2022-08-19T10:30:15;4.07;;;1.48;;
30571;SDS011;17348;50.948;10.696;2022-08-19T10:33:18;1.55;;;1.35;;
30571;SDS011;17348;50.948;10.696;2022-08-19T10:36:22;5.75;;;1.40;;
30571;SDS011;17348;50.948;10.696;2022-08-19T10:39:26;3.70;;;1.20;;
30571;SDS011;17348;50.948;10.696;2022-08-19T10:42:29;8.20;;;1.35;;
30571;SDS011;17348;50.948;10.696;2022-08-19T10:45:33;4.72;;;1.67;;
30571;SDS011;17348;50.948;10.696;2022-08-19T10:48:35;2.97;;;1.52;;
30571;SDS011;17348;50.948;10.696;2022-08-19T10:51:39;2.33;;;1.27;;
30571;SDS011;17348;50.948;10.696;2022-08-19T10:54:59;3.80;;;1.45;;
30571;SDS011;17348;50.948;10.696;2022-08-19T10:58:20;6.90;;;1.90;;
30571;SDS011;17348;50.948;10.696;2022-08-19T11:01:26;3.85;;;1.63;;
30571;SDS011;17348;50.948;10.696;2022-08-19T11:04:30;6.55;;;1.67;;
30571;SDS011;17348;50.948;10.696;2022-08-19T11:07:35;2.40;;;1.42;;
30571;SDS011;17348;50.948;10.696;2022-08-19T11:10:40;2.80;;;1.65;;
30571;SDS011;17348;50.948;10.696;2022-08-19T11:13:44;6.38;;;1.67;;
30571;SDS011;17348;50.948;10.696;2022-08-19T11:16:47;3.35;;;1.63;;
30571;SDS011;17348;50.948;10.696;2022-08-19T11:19:50;5.55;;;1.45;;
30571;SDS011;17348;50.948;10.696;2022-08-19T11:22:54;2.80;;;2.00;;
30571;SDS011;17348;50.948;10.696;2022-08-19T11:25:56;2.90;;;1.45;;
30571;SDS011;17348;50.948;10.696;2022-08-19T11:29:02;6.20;;;1.65;;
30571;SDS011;17348;50.948;10.696;2022-08-19T11:32:08;3.65;;;1.80;;
30571;SDS011;17348;50.948;10.696;2022-08-19T11:35:15;2.97;;;1.67;;
30571;SDS011;17348;50.948;10.696;2022-08-19T11:38:21;4.68;;;1.95;;
30571;SDS011;17348;50.948;10.696;2022-08-19T11:41:23;4.05;;;2.10;;
30571;SDS011;17348;50.948;10.696;2022-08-19T11:44:26;5.82;;;1.70;;
30571;SDS011;17348;50.948;10.696;2022-08-19T11:47:30;6.30;;;1.48;;
30571;SDS011;17348;50.948;10.696;2022-08-19T11:50:33;3.22;;;1.70;;
30571;SDS011;17348;50.948;10.696;2022-08-19T11:53:45;7.53;;;1.80;;
30571;SDS011;17348;50.948;10.696;2022-08-19T11:56:47;4.10;;;2.00;;
30571;SDS011;17348;50.948;10.696;2022-08-19T11:59:50;11.30;;;1.60;;
30571;SDS011;17348;50.948;10.696;2022-08-19T12:02:56;4.00;;;1.67;;
30571;SDS011;17348;50.948;10.696;2022-08-19T12:05:58;2.53;;;1.95;;
30571;SDS011;17348;50.948;10.696;2022-08-19T12:09:06;5.93;;;1.80;;
30571;SDS011;17348;50.948;10.696;2022-08-19T12:12:10;3.33;;;2.10;;
30571;SDS011;17348;50.948;10.696;2022-08-19T12:15:15;2.30;;;1.58;;
30571;SDS011;17348;50.948;10.696;2022-08-19T12:18:18;4.57;;;1.85;;
30571;SDS011;17348;50.948;10.696;2022-08-19T12:21:21;7.18;;;2.25;;
30571;SDS011;17348;50.948;10.696;2022-08-19T12:24:31;3.08;;;2.03;;
30571;SDS011;17348;50.948;10.696;2022-08-19T12:27:34;4.03;;;2.03;;
30571;SDS011;17348;50.948;10.696;2022-08-19T12:30:37;4.72;;;2.17;;
30571;SDS011;17348;50.948;10.696;2022-08-19T12:33:40;3.60;;;1.63;;
30571;SDS011;17348;50.948;10.696;2022-08-19T12:36:42;3.13;;;1.70;;
30571;SDS011;17348;50.948;10.696;2022-08-19T12:39:46;4.35;;;1.65;;
30571;SDS011;17348;50.948;10.696;2022-08-19T12:42:48;11.15;;;1.80;;
30571;SDS011;17348;50.948;10.696;2022-08-19T12:45:51;3.80;;;1.98;;
30571;SDS011;17348;50.948;10.696;2022-08-19T12:48:56;3.83;;;2.30;;
30571;SDS011;17348;50.948;10.696;2022-08-19T12:51:59;10.13;;;2.08;;
30571;SDS011;17348;50.948;10.696;2022-08-19T12:55:04;1.35;;;1.25;;
30571;SDS011;17348;50.948;10.696;2022-08-19T12:58:08;5.22;;;2.33;;
30571;SDS011;17348;50.948;10.696;2022-08-19T13:01:11;6.07;;;1.63;;
30571;SDS011;17348;50.948;10.696;2022-08-19T13:04:14;5.72;;;1.92;;
30571;SDS011;17348;50.948;10.696;2022-08-19T13:07:17;2.97;;;1.95;;
30571;SDS011;17348;50.948;10.696;2022-08-19T13:10:21;4.45;;;1.60;;
30571;SDS011;17348;50.948;10.696;2022-08-19T13:13:25;4.57;;;1.60;;
30571;SDS011;17348;50.948;10.696;2022-08-19T13:16:27;7.55;;;1.92;;
30571;SDS011;17348;50.948;10.696;2022-08-19T13:19:30;4.78;;;1.63;;
30571;SDS011;17348;50.948;10.696;2022-08-19T13:22:34;2.58;;;1.50;;
30571;SDS011;17348;50.948;10.696;2022-08-19T13:25:38;2.40;;;1.45;;
30571;SDS011;17348;50.948;10.696;2022-08-19T13:28:40;3.33;;;1.55;;
30571;SDS011;17348;50.948;10.696;2022-08-19T13:32:01;1.70;;;1.40;;
30571;SDS011;17348;50.948;10.696;2022-08-19T13:35:21;5.07;;;2.40;;
30571;SDS011;17348;50.948;10.696;2022-08-19T13:38:23;2.28;;;1.60;;
30571;SDS011;17348;50.948;10.696;2022-08-19T13:41:27;3.60;;;1.92;;
30571;SDS011;17348;50.948;10.696;2022-08-19T13:44:30;5.75;;;1.75;;
30571;SDS011;17348;50.948;10.696;2022-08-19T13:47:32;2.45;;;1.40;;
30571;SDS011;17348;50.948;10.696;2022-08-19T13:50:38;1.83;;;1.63;;
30571;SDS011;17348;50.948;10.696;2022-08-19T13:53:42;2.58;;;1.60;;
30571;SDS011;17348;50.948;10.696;2022-08-19T13:56:46;2.65;;;1.33;;
30571;SDS011;17348;50.948;10.696;2022-08-19T13:59:49;2.25;;;1.60;;
30571;SDS011;17348;50.948;10.696;2022-08-19T14:02:52;3.20;;;1.60;;
30571;SDS011;17348;50.948;10.696;2022-08-19T14:05:55;2.17;;;1.58;;
30571;SDS011;17348;50.948;10.696;2022-08-19T14:08:58;2.60;;;1.67;;
30571;SDS011;17348;50.948;10.696;2022-08-19T14:12:04;2.30;;;1.45;;
30571;SDS011;17348;50.948;10.696;2022-08-19T14:15:07;2.33;;;1.67;;
30571;SDS011;17348;50.948;10.696;2022-08-19T14:18:11;7.28;;;1.90;;
30571;SDS011;17348;50.948;10.696;2022-08-19T14:21:19;3.38;;;1.73;;
30571;SDS011;17348;50.948;10.696;2022-08-19T14:24:24;2.10;;;1.67;;
30571;SDS011;17348;50.948;10.696;2022-08-19T14:27:27;2.65;;;1.45;;
30571;SDS011;17348;50.948;10.696;2022-08-19T14:30:30;4.25;;;1.83;;
30571;SDS011;17348;50.948;10.696;2022-08-19T14:33:35;7.32;;;1.85;;
30571;SDS011;17348;50.948;10.696;2022-08-19T14:36:37;2.63;;;1.50;;
30571;SDS011;17348;50.948;10.696;2022-08-19T14:39:40;3.50;;;1.65;;
30571;SDS011;17348;50.948;10.696;2022-08-19T14:42:44;2.08;;;1.63;;
30571;SDS011;17348;50.948;10.696;2022-08-19T14:45:47;4.97;;;1.77;;
30571;SDS011;17348;50.948;10.696;2022-08-19T14:48:49;3.28;;;1.55;;
30571;SDS011;17348;50.948;10.696;2022-08-19T14:51:51;2.00;;;1.63;;
30571;SDS011;17348;50.948;10.696;2022-08-19T14:54:54;3.95;;;1.70;;
30571;SDS011;17348;50.948;10.696;2022-08-19T14:57:57;6.63;;;2.03;;
30571;SDS011;17348;50.948;10.696;2022-08-19T15:01:00;5.30;;;1.60;;
30571;SDS011;17348;50.948;10.696;2022-08-19T15:04:03;4.85;;;1.70;;
30571;SDS011;17348;50.948;10.696;2022-08-19T15:07:06;2.10;;;1.42;;
30571;SDS011;17348;50.948;10.696;2022-08-19T15:10:09;3.42;;;1.98;;
30571;SDS011;17348;50.948;10.696;2022-08-19T15:13:15;2.30;;;1.40;;
30571;SDS011;17348;50.948;10.696;2022-08-19T15:16:18;2.47;;;1.60;;
30571;SDS011;17348;50.948;10.696;2022-08-19T15:19:21;1.85;;;1.50;;
30571;SDS011;17348;50.948;10.696;2022-08-19T15:22:24;5.10;;;1.55;;
30571;SDS011;17348;50.948;10.696;2022-08-19T15:25:26;4.50;;;1.75;;
30571;SDS011;17348;50.948;10.696;2022-08-19T15:28:30;9.13;;;1.45;;
30571;SDS011;17348;50.948;10.696;2022-08-19T15:31:33;2.35;;;1.40;;
30571;SDS011;17348;50.948;10.696;2022-08-19T15:34:36;1.50;;;1.40;;
30571;SDS011;17348;50.948;10.696;2022-08-19T15:37:38;3.30;;;1.50;;
30571;SDS011;17348;50.948;10.696;2022-08-19T15:40:40;3.72;;;1.35;;
30571;SDS011;17348;50.948;10.696;2022-08-19T15:43:45;2.25;;;1.23;;
30571;SDS011;17348;50.948;10.696;2022-08-19T15:46:47;4.40;;;1.95;;
30571;SDS011;17348;50.948;10.696;2022-08-19T15:49:50;2.60;;;1.35;;
30571;SDS011;17348;50.948;10.696;2022-08-19T15:52:53;6.20;;;1.13;;
30571;SDS011;17348;50.948;10.696;2022-08-19T15:55:58;4.00;;;1.10;;
30571;SDS011;17348;50.948;10.696;2022-08-19T15:59:02;3.85;;;0.90;;
30571;SDS011;17348;50.948;10.696;2022-08-19T16:02:22;2.72;;;1.30;;
30571;SDS011;17348;50.948;10.696;2022-08-19T16:05:34;2.13;;;1.10;;
30571;SDS011;17348;50.948;10.696;2022-08-19T16:08:54;3.10;;;1.20;;
30571;SDS011;17348;50.948;10.696;2022-08-19T16:11:58;12.10;;;1.60;;
30571;SDS011;17348;50.948;10.696;2022-08-19T16:15:04;2.10;;;1.60;;
30571;SDS011;17348;50.948;10.696;2022-08-19T16:18:07;2.03;;;1.73;;
30571;SDS011;17348;50.948;10.696;2022-08-19T16:21:09;2.65;;;1.25;;
30571;SDS011;17348;50.948;10.696;2022-08-19T16:24:14;4.18;;;1.42;;
30571;SDS011;17348;50.948;10.696;2022-08-19T16:27:18;2.75;;;1.30;;
30571;SDS011;17348;50.948;10.696;2022-08-19T16:30:23;4.97;;;1.40;;
30571;SDS011;17348;50.948;10.696;2022-08-19T16:33:28;3.47;;;1.85;;
30571;SDS011;17348;50.948;10.696;2022-08-19T16:36:30;3.95;;;1.70;;
30571;SDS011;17348;50.948;10.696;2022-08-19T16:39:34;4.90;;;1.70;;
30571;SDS011;17348;50.948;10.696;2022-08-19T16:42:37;6.18;;;1.63;;
30571;SDS011;17348;50.948;10.696;2022-08-19T16:45:40;1.92;;;1.48;;
30571;SDS011;17348;50.948;10.696;2022-08-19T16:48:43;2.28;;;1.38;;
30571;SDS011;17348;50.948;10.696;2022-08-19T16:51:45;2.92;;;1.55;;
30571;SDS011;17348;50.948;10.696;2022-08-19T16:54:48;6.15;;;1.55;;
30571;SDS011;17348;50.948;10.696;2022-08-19T16:57:50;1.83;;;1.33;;
30571;SDS011;17348;50.948;10.696;2022-08-19T17:00:54;2.15;;;1.25;;
30571;SDS011;17348;50.948;10.696;2022-08-19T17:03:58;2.25;;;1.40;;
30571;SDS011;17348;50.948;10.696;2022-08-19T17:07:01;1.20;;;1.10;;
30571;SDS011;17348;50.948;10.696;2022-08-19T17:10:04;4.60;;;1.70;;
30571;SDS011;17348;50.948;10.696;2022-08-19T17:13:07;2.20;;;1.52;;
30571;SDS011;17348;50.948;10.696;2022-08-19T17:16:11;3.50;;;1.33;;
30571;SDS011;17348;50.948;10.696;2022-08-19T17:19:13;1.20;;;1.10;;
30571;SDS011;17348;50.948;10.696;2022-08-19T17:22:16;1.63;;;0.98;;
30571;SDS011;17348;50.948;10.696;2022-08-19T17:25:18;2.42;;;1.45;;
30571;SDS011;17348;50.948;10.696;2022-08-19T17:28:22;1.40;;;1.25;;
30571;SDS011;17348;50.948;10.696;2022-08-19T17:31:28;2.70;;;1.88;;
30571;SDS011;17348;50.948;10.696;2022-08-19T17:34:31;1.88;;;1.58;;
30571;SDS011;17348;50.948;10.696;2022-08-19T17:37:34;3.17;;;1.35;;
30571;SDS011;17348;50.948;10.696;2022-08-19T17:40:39;10.55;;;1.65;;
30571;SDS011;17348;50.948;10.696;2022-08-19T17:43:42;2.33;;;1.60;;
30571;SDS011;17348;50.948;10.696;2022-08-19T17:46:46;5.82;;;1.85;;
30571;SDS011;17348;50.948;10.696;2022-08-19T17:49:52;11.13;;;1.88;;
30571;SDS011;17348;50.948;10.696;2022-08-19T17:52:56;8.23;;;2.05;;
30571;SDS011;17348;50.948;10.696;2022-08-19T17:55:59;3.42;;;1.73;;
30571;SDS011;17348;50.948;10.696;2022-08-19T17:59:02;3.67;;;1.70;;
30571;SDS011;17348;50.948;10.696;2022-08-19T18:02:06;2.72;;;1.90;;